Time;durP1;ratioP1;P1;durP2;ratioP2;P2;SDS_P1;SDS_P2;PMS_P1;PMS_P2;Temp;Humidity;BMP_temperature;BMP_pressure;BME280_temperature;BME280_humidity;BME280_pressure;Samples;Min_cycle;Max_cycle;Signal;HPM_P1;HPM_P2
2023/05/22 00:02:03;;;;;;;9.50;1.70;;;;;;;14.93;65.61;100508.62;108856;1270;25284;-84
2023/05/22 00:04:34;;;;;;;9.40;1.80;;;;;;;14.91;65.77;100501.70;108996;1259;23769;-84
2023/05/22 00:07:06;;;;;;;10.70;1.70;;;;;;;14.89;66.02;100503.07;108953;1266;22475;-85
2023/05/22 00:09:37;;;;;;;7.10;1.70;;;;;;;14.87;66.18;100502.85;109043;1267;24272;-84
2023/05/22 00:12:09;;;;;;;9.10;2.10;;;;;;;14.83;66.42;100504.83;108927;1270;24328;-84
2023/05/22 00:14:40;;;;;;;7.80;2.20;;;;;;;14.82;66.62;100504.04;109042;1262;22580;-84
2023/05/22 00:17:13;;;;;;;12.40;2.10;;;;;;;14.80;66.86;100499.99;108848;1270;22561;-83
2023/05/22 00:19:45;;;;;;;10.10;2.10;;;;;;;14.80;66.79;100502.45;108987;1268;22541;-84
2023/05/22 00:22:15;;;;;;;8.90;2.00;;;;;;;14.77;67.04;100501.89;108960;1270;22518;-84
2023/05/22 00:24:47;;;;;;;8.10;1.90;;;;;;;14.75;67.17;100502.17;108953;1267;22547;-84
2023/05/22 00:27:17;;;;;;;11.50;2.20;;;;;;;14.72;67.27;100504.40;108833;1274;22501;-85
2023/05/22 00:29:48;;;;;;;8.00;2.00;;;;;;;14.70;67.28;100502.40;109046;1267;22510;-84
2023/05/22 00:32:19;;;;;;;7.50;1.80;;;;;;;14.66;67.46;100498.67;109025;1267;22513;-84
2023/05/22 00:34:50;;;;;;;7.50;2.00;;;;;;;14.64;67.39;100496.57;109011;1261;22514;-83
2023/05/22 00:37:21;;;;;;;8.60;2.20;;;;;;;14.64;67.54;100497.95;108958;1267;22517;-83
2023/05/22 00:39:52;;;;;;;7.20;1.80;;;;;;;14.60;67.64;100496.34;108934;1266;25274;-83
2023/05/22 00:42:22;;;;;;;11.70;1.90;;;;;;;14.55;67.62;100497.09;108803;1274;22856;-84
2023/05/22 00:44:53;;;;;;;7.20;1.90;;;;;;;14.50;67.87;100496.23;108918;1274;22514;-83
2023/05/22 00:47:25;;;;;;;7.20;2.20;;;;;;;14.44;67.97;100493.53;108805;1274;22518;-84
2023/05/22 00:49:57;;;;;;;7.50;2.00;;;;;;;14.39;68.09;100497.23;108931;1274;24572;-83
2023/05/22 00:52:27;;;;;;;9.20;2.40;;;;;;;14.33;68.16;100495.59;108934;1266;25274;-82
2023/05/22 00:55:02;;;;;;;8.10;1.90;;;;;;;14.26;68.45;100500.30;109005;1262;22549;-83
2023/05/22 00:57:39;;;;;;;9.40;2.20;;;;;;;14.18;68.31;100497.17;109053;1267;24933;-83
2023/05/22 01:00:19;;;;;;;9.70;1.80;;;;;;;14.10;68.49;100500.63;109026;1270;22563;-83
2023/05/22 01:02:50;;;;;;;6.50;1.50;;;;;;;14.01;68.69;100504.63;108973;1273;24427;-84
2023/05/22 01:05:20;;;;;;;6.60;1.70;;;;;;;13.95;68.75;100505.59;108948;1266;22582;-84
2023/05/22 01:07:52;;;;;;;7.00;1.80;;;;;;;13.88;68.96;100506.04;108829;1266;25024;-83
2023/05/22 01:10:23;;;;;;;6.20;1.70;;;;;;;13.82;69.10;100508.06;108898;1274;22545;-84
2023/05/22 01:13:15;;;;;;;9.40;2.50;;;;;;;13.74;69.18;100508.60;108953;1263;22508;-84
2023/05/22 01:15:55;;;;;;;12.30;1.80;;;;;;;13.64;69.34;100501.86;110598;1266;22970;-84
2023/05/22 01:18:32;;;;;;;9.20;1.60;;;;;;;13.57;69.39;100501.38;110603;1274;22295;-84
2023/05/22 01:21:10;;;;;;;8.40;1.80;;;;;;;13.54;69.47;100505.06;110571;1275;22178;-83
2023/05/22 01:24:10;;;;;;;6.30;1.70;;;;;;;13.49;69.53;100503.84;110274;1270;22518;-84
2023/05/22 01:27:13;;;;;;;8.70;2.00;;;;;;;13.44;69.67;100506.07;109076;1266;23300;-84
2023/05/22 01:29:55;;;;;;;7.20;2.00;;;;;;;13.39;69.77;100503.58;109104;1267;23443;-83
2023/05/22 01:32:28;;;;;;;7.50;1.70;;;;;;;13.35;69.93;100503.63;108988;1269;24210;-83
2023/05/22 01:35:05;;;;;;;8.10;2.00;;;;;;;13.31;70.03;100504.79;108953;1266;22549;-84
2023/05/22 01:37:42;;;;;;;9.10;2.30;;;;;;;13.24;70.11;100502.21;108977;1274;22708;-84
2023/05/22 01:40:14;;;;;;;10.10;2.00;;;;;;;13.17;70.39;100505.04;109147;1266;22590;-83
2023/05/22 01:42:45;;;;;;;8.00;2.10;;;;;;;13.13;70.59;100500.02;109061;1274;24263;-83
2023/05/22 01:45:16;;;;;;;9.20;1.90;;;;;;;13.09;70.64;100501.36;108992;1274;22761;-83
2023/05/22 01:47:48;;;;;;;10.60;1.70;;;;;;;13.07;70.82;100499.30;108841;1270;22536;-83
2023/05/22 01:50:20;;;;;;;7.60;2.30;;;;;;;13.05;70.82;100502.15;108942;1267;22571;-83
2023/05/22 01:52:59;;;;;;;7.00;2.00;;;;;;;13.02;71.00;100505.41;108878;1259;22551;-83
2023/05/22 01:55:41;;;;;;;8.30;1.80;;;;;;;13.00;71.07;100504.88;108945;1273;22524;-84
2023/05/22 01:58:24;;;;;;;7.70;2.10;;;;;;;12.98;71.23;100504.66;109008;1270;22472;-84
2023/05/22 02:00:59;;;;;;;6.90;1.80;;;;;;;12.94;71.27;100507.91;110598;1266;22386;-84
2023/05/22 02:03:33;;;;;;;12.20;2.20;;;;;;;12.89;71.30;100504.67;110614;1274;22384;-85
2023/05/22 02:06:07;;;;;;;11.40;2.90;;;;;;;12.85;71.40;100507.08;110571;1274;22174;-84
2023/05/22 02:08:41;;;;;;;9.70;1.80;;;;;;;12.79;71.47;100505.05;110594;1274;22374;-84
2023/05/22 02:11:13;;;;;;;6.80;1.70;;;;;;;12.74;71.64;100506.91;110661;1266;23425;-84
2023/05/22 02:13:44;;;;;;;7.60;2.20;;;;;;;12.69;71.70;100508.23;110660;1270;22129;-85
2023/05/22 02:16:15;;;;;;;7.60;2.10;;;;;;;12.63;71.75;100501.34;109840;1270;22540;-84
2023/05/22 02:18:47;;;;;;;8.00;2.10;;;;;;;12.58;71.86;100498.94;108995;1267;22549;-84
2023/05/22 02:21:18;;;;;;;9.60;2.10;;;;;;;12.52;71.81;100495.60;109009;1266;24215;-84
2023/05/22 02:23:49;;;;;;;8.80;1.70;;;;;;;12.48;72.09;100493.93;109105;1263;23979;-84
2023/05/22 02:26:20;;;;;;;7.90;2.10;;;;;;;12.43;72.14;100493.92;109014;1274;25479;-84
2023/05/22 02:28:51;;;;;;;7.60;1.70;;;;;;;12.38;72.24;100490.55;109107;1266;25401;-85
2023/05/22 02:31:21;;;;;;;7.90;1.40;;;;;;;12.34;72.26;100489.19;109114;1271;23839;-84
2023/05/22 02:33:52;;;;;;;8.20;1.90;;;;;;;12.29;72.45;100490.80;109078;1272;22569;-84
2023/05/22 02:36:25;;;;;;;9.20;2.30;;;;;;;12.26;72.54;100489.83;108730;1267;24353;-82
2023/05/22 02:38:57;;;;;;;11.10;2.10;;;;;;;12.22;72.76;100489.52;108364;1274;23357;-82
2023/05/22 02:41:28;;;;;;;11.70;2.10;;;;;;;12.18;72.92;100487.33;108479;1273;23245;-82
2023/05/22 02:43:59;;;;;;;6.80;2.00;;;;;;;12.17;72.94;100485.98;108510;1274;22537;-82
2023/05/22 02:46:29;;;;;;;9.40;1.70;;;;;;;12.15;72.92;100486.77;108602;1270;22540;-82
2023/05/22 02:49:00;;;;;;;9.40;2.20;;;;;;;12.13;73.08;100488.09;108555;1273;24760;-82
2023/05/22 02:51:31;;;;;;;8.50;2.20;;;;;;;12.11;73.34;100485.98;108491;1269;22633;-83
2023/05/22 02:54:02;;;;;;;9.90;1.80;;;;;;;12.09;73.41;100485.84;108509;1274;23614;-82
2023/05/22 02:56:33;;;;;;;8.30;2.20;;;;;;;12.06;73.32;100486.00;108580;1268;25447;-82
2023/05/22 02:59:03;;;;;;;7.70;1.90;;;;;;;12.04;73.29;100485.75;108535;1274;23203;-82
2023/05/22 03:01:35;;;;;;;6.50;1.80;;;;;;;12.01;73.36;100486.88;108702;1274;22635;-82
2023/05/22 03:04:06;;;;;;;9.60;1.90;;;;;;;11.96;73.46;100489.89;108618;1274;25690;-83
2023/05/22 03:06:37;;;;;;;7.20;2.10;;;;;;;11.92;73.58;100491.95;108435;1267;24176;-82
2023/05/22 03:09:08;;;;;;;8.70;1.90;;;;;;;11.89;73.72;100489.92;108356;1274;22652;-83
2023/05/22 03:11:39;;;;;;;6.70;1.70;;;;;;;11.85;73.78;100492.08;108477;1274;25329;-83
2023/05/22 03:14:09;;;;;;;8.30;1.70;;;;;;;11.81;73.90;100491.61;108661;1274;22555;-84
2023/05/22 03:16:41;;;;;;;9.20;1.80;;;;;;;11.79;74.09;100487.35;108660;1274;26508;-83
2023/05/22 03:19:12;;;;;;;10.00;2.10;;;;;;;11.75;74.26;100487.98;108597;1266;22803;-83
2023/05/22 03:21:44;;;;;;;8.60;1.80;;;;;;;11.69;74.18;100483.26;108507;1266;22568;-83
2023/05/22 03:24:14;;;;;;;11.00;1.90;;;;;;;11.64;74.36;100480.09;108583;1263;25415;-83
2023/05/22 03:26:45;;;;;;;7.80;2.10;;;;;;;11.61;74.59;100477.59;108587;1267;25628;-83
2023/05/22 03:29:16;;;;;;;9.50;2.40;;;;;;;11.58;74.44;100478.84;108653;1274;22486;-84
2023/05/22 03:31:47;;;;;;;10.50;2.70;;;;;;;11.54;74.58;100481.06;108661;1270;22547;-83
2023/05/22 03:34:18;;;;;;;10.40;1.90;;;;;;;11.52;74.64;100483.89;108499;1263;23732;-83
2023/05/22 03:36:48;;;;;;;7.40;1.80;;;;;;;11.52;74.73;100486.15;108512;1263;22474;-83
2023/05/22 03:39:19;;;;;;;7.60;1.80;;;;;;;11.52;74.86;100484.54;108385;1263;22486;-82
2023/05/22 03:41:50;;;;;;;11.40;2.40;;;;;;;11.52;74.93;100489.50;108556;1274;22764;-83
2023/05/22 03:44:21;;;;;;;7.30;1.70;;;;;;;11.51;75.04;100483.05;108766;1272;22513;-85
2023/05/22 03:46:51;;;;;;;8.80;2.00;;;;;;;11.49;75.13;100484.04;108818;1274;23208;-85
2023/05/22 03:49:22;;;;;;;6.90;1.90;;;;;;;11.48;75.47;100481.77;108886;1267;22626;-84
2023/05/22 03:51:53;;;;;;;6.40;2.10;;;;;;;11.48;75.55;100483.65;108733;1272;22525;-85
2023/05/22 03:54:24;;;;;;;12.70;3.30;;;;;;;11.48;75.74;100484.92;108810;1274;22897;-85
2023/05/22 03:56:54;;;;;;;10.30;3.10;;;;;;;11.46;75.71;100481.73;108978;1274;24253;-86
2023/05/22 03:59:25;;;;;;;11.20;3.00;;;;;;;11.45;75.89;100482.27;109026;1269;22554;-87
2023/05/22 04:01:56;;;;;;;8.00;2.70;;;;;;;11.45;76.17;100480.59;109373;1271;22595;-87
2023/05/22 04:04:27;;;;;;;11.10;3.00;;;;;;;11.46;76.11;100481.92;109230;1271;24251;-86
2023/05/22 04:06:58;;;;;;;10.10;2.20;;;;;;;11.46;76.25;100483.52;109306;1272;23245;-85
2023/05/22 04:09:34;;;;;;;10.10;2.40;;;;;;;11.48;76.52;100482.63;109705;1251;23228;-84
2023/05/22 04:12:05;;;;;;;9.80;2.40;;;;;;;11.49;76.61;100478.84;109445;1266;22522;-84
2023/05/22 04:14:36;;;;;;;7.50;1.80;;;;;;;11.53;76.77;100477.35;109142;1275;22533;-88
2023/05/22 04:17:07;;;;;;;9.10;2.50;;;;;;;11.58;76.83;100472.61;109678;1271;23389;-87
2023/05/22 04:19:38;;;;;;;12.70;2.10;;;;;;;11.65;76.86;100472.20;109687;1267;22524;-87
2023/05/22 04:22:08;;;;;;;9.20;2.50;;;;;;;11.73;76.95;100471.92;109880;1262;22614;-87
2023/05/22 04:24:39;;;;;;;9.30;2.40;;;;;;;11.81;76.83;100469.89;109759;1266;25338;-85
2023/05/22 04:27:11;;;;;;;9.20;1.90;;;;;;;11.89;77.02;100469.52;108846;1267;22507;-90
2023/05/22 04:29:43;;;;;;;9.20;2.20;;;;;;;11.98;76.97;100470.45;109242;1270;27091;-88
2023/05/22 04:32:17;;;;;;;8.50;2.70;;;;;;;12.08;77.00;100473.77;109550;1266;22114;-88
2023/05/22 04:34:50;;;;;;;8.40;2.30;;;;;;;12.18;77.11;100476.58;109575;1267;23074;-88
2023/05/22 04:37:21;;;;;;;13.50;2.30;;;;;;;12.28;76.96;100475.14;109497;1272;22528;-89
2023/05/22 04:39:52;;;;;;;9.60;2.70;;;;;;;12.38;76.93;100470.38;109297;1274;22579;-87
2023/05/22 04:42:24;;;;;;;10.20;2.70;;;;;;;12.49;76.90;100479.20;109386;1272;24260;-90
2023/05/22 04:44:56;;;;;;;13.50;2.80;;;;;;;12.59;76.76;100477.58;109387;1274;22662;-90
2023/05/22 04:47:27;;;;;;;8.30;1.80;;;;;;;12.70;76.86;100480.73;109012;1266;22786;-88
2023/05/22 04:50:01;;;;;;;8.80;2.50;;;;;;;12.81;76.74;100478.94;109597;1270;25194;-89
2023/05/22 04:52:32;;;;;;;13.70;2.40;;;;;;;12.93;76.54;100474.88;109499;1269;27036;-88
2023/05/22 04:55:02;;;;;;;9.60;2.30;;;;;;;13.05;76.23;100473.94;109557;1271;23207;-88
2023/05/22 04:57:33;;;;;;;12.80;3.30;;;;;;;13.19;76.00;100478.09;109700;1270;25370;-88
2023/05/22 05:00:05;;;;;;;10.30;2.20;;;;;;;13.34;76.06;100482.65;109488;1274;22462;-87
2023/05/22 05:02:38;;;;;;;13.10;2.50;;;;;;;13.46;75.90;100479.94;109260;1274;22579;-88
2023/05/22 05:05:09;;;;;;;9.10;2.40;;;;;;;13.59;75.69;100483.09;109441;1274;22662;-88
2023/05/22 05:07:40;;;;;;;12.70;3.50;;;;;;;13.76;75.35;100483.41;109450;1271;22493;-88
2023/05/22 05:10:12;;;;;;;15.90;3.40;;;;;;;13.87;75.03;100483.92;109452;1270;22566;-87
2023/05/22 05:12:44;;;;;;;10.10;2.50;;;;;;;13.98;75.36;100479.89;109600;1270;22616;-88
2023/05/22 05:15:15;;;;;;;10.10;2.80;;;;;;;14.12;75.15;100482.27;109457;1270;22556;-88
2023/05/22 05:17:45;;;;;;;12.20;2.00;;;;;;;14.25;74.73;100481.20;109627;1267;22923;-87
2023/05/22 05:20:16;;;;;;;12.80;2.10;;;;;;;14.40;74.81;100477.82;109530;1272;23322;-88
2023/05/22 05:22:47;;;;;;;11.30;2.10;;;;;;;14.56;74.45;100479.52;109314;1272;22531;-87
2023/05/22 05:25:19;;;;;;;15.20;2.30;;;;;;;14.72;74.04;100477.77;109512;1271;22517;-87
2023/05/22 05:27:49;;;;;;;18.30;2.70;;;;;;;14.87;73.77;100484.19;108790;1266;22514;-83
2023/05/22 05:30:20;;;;;;;8.00;1.80;;;;;;;15.00;73.26;100486.21;108668;1274;23231;-82
2023/05/22 05:32:51;;;;;;;10.30;2.20;;;;;;;15.15;72.75;100484.29;108622;1274;22488;-83
2023/05/22 05:35:22;;;;;;;10.80;2.10;;;;;;;15.30;72.49;100481.07;108691;1267;24292;-83
2023/05/22 05:37:53;;;;;;;6.70;1.70;;;;;;;15.44;71.79;100476.95;108568;1274;23280;-83
2023/05/22 05:40:23;;;;;;;7.90;1.80;;;;;;;15.56;71.40;100475.97;108522;1266;22538;-82
2023/05/22 05:42:55;;;;;;;10.10;1.80;;;;;;;15.67;71.40;100479.73;108439;1266;22524;-83
2023/05/22 05:45:25;;;;;;;9.70;1.80;;;;;;;15.80;70.92;100478.77;108503;1274;25282;-83
2023/05/22 05:47:56;;;;;;;7.80;2.10;;;;;;;15.92;70.56;100471.02;108450;1274;24044;-83
2023/05/22 05:50:27;;;;;;;9.80;2.10;;;;;;;16.06;70.24;100475.52;108594;1274;23312;-82
2023/05/22 05:52:58;;;;;;;8.20;1.80;;;;;;;16.17;69.98;100473.53;108505;1274;25315;-83
2023/05/22 05:55:28;;;;;;;9.90;2.30;;;;;;;16.29;69.63;100476.70;108593;1271;23807;-82
2023/05/22 05:57:59;;;;;;;10.30;1.70;;;;;;;16.40;68.96;100475.42;108493;1272;23315;-83
2023/05/22 06:00:30;;;;;;;7.80;2.10;;;;;;;16.49;68.62;100473.52;108519;1251;24211;-82
2023/05/22 06:03:01;;;;;;;9.50;1.80;;;;;;;16.59;68.35;100469.84;108500;1272;22576;-82
2023/05/22 06:05:31;;;;;;;10.60;2.00;;;;;;;16.69;68.12;100470.28;108503;1271;23499;-82
2023/05/22 06:08:03;;;;;;;8.10;1.70;;;;;;;16.82;67.50;100471.22;108477;1271;22501;-83
2023/05/22 06:10:34;;;;;;;8.10;2.00;;;;;;;16.94;67.38;100469.29;108318;1272;22534;-83
2023/05/22 06:13:05;;;;;;;7.60;1.90;;;;;;;17.03;67.08;100467.50;108330;1263;26436;-83
2023/05/22 06:15:35;;;;;;;7.80;1.60;;;;;;;17.14;66.63;100469.37;108463;1267;22548;-83
2023/05/22 06:18:06;;;;;;;8.60;1.60;;;;;;;17.24;65.76;100470.40;108604;1274;23004;-83
2023/05/22 06:20:38;;;;;;;8.30;1.70;;;;;;;17.32;65.27;100465.08;108521;1266;24302;-83
2023/05/22 06:23:09;;;;;;;10.40;1.80;;;;;;;17.41;65.42;100466.73;108598;1272;22511;-82
2023/05/22 06:25:40;;;;;;;11.70;2.40;;;;;;;17.51;64.91;100465.31;108591;1272;22633;-82
2023/05/22 06:28:11;;;;;;;7.30;1.40;;;;;;;17.61;64.05;100470.09;108417;1274;25233;-82
2023/05/22 06:30:42;;;;;;;9.60;1.90;;;;;;;17.69;63.92;100472.97;108436;1267;22501;-83
2023/05/22 06:33:13;;;;;;;7.00;1.70;;;;;;;17.77;63.42;100466.44;108543;1274;25472;-83
2023/05/22 06:35:44;;;;;;;7.90;1.40;;;;;;;17.81;62.61;100469.80;108407;1270;22546;-82
2023/05/22 06:38:14;;;;;;;7.90;1.70;;;;;;;17.83;62.76;100470.56;108519;1271;24197;-83
2023/05/22 06:40:45;;;;;;;9.10;2.00;;;;;;;17.88;62.39;100469.25;108536;1271;22513;-83
2023/05/22 06:43:16;;;;;;;6.00;1.70;;;;;;;17.95;62.46;100466.84;108608;1270;22564;-83
2023/05/22 06:45:47;;;;;;;7.20;1.40;;;;;;;18.02;61.53;100465.75;108526;1266;22479;-83
2023/05/22 06:48:18;;;;;;;7.20;1.70;;;;;;;18.09;61.71;100466.05;108278;1274;22554;-83
2023/05/22 06:50:49;;;;;;;9.40;1.70;;;;;;;18.14;61.72;100468.31;108391;1274;23897;-83
2023/05/22 06:53:20;;;;;;;6.40;1.60;;;;;;;18.19;61.15;100464.52;108396;1268;22514;-83
2023/05/22 06:55:51;;;;;;;11.00;1.50;;;;;;;18.25;60.91;100469.27;108537;1270;22562;-83
2023/05/22 06:58:22;;;;;;;8.50;1.50;;;;;;;18.30;61.07;100467.52;108570;1274;22539;-82
2023/05/22 07:00:54;;;;;;;5.80;1.60;;;;;;;18.34;60.33;100467.90;108577;1272;23917;-83
2023/05/22 07:03:45;;;;;;;8.30;1.60;;;;;;;18.39;60.21;100475.40;108405;1275;22766;-83
2023/05/22 07:06:16;;;;;;;9.60;1.80;;;;;;;18.45;60.30;100475.88;108501;1274;24198;-80
2023/05/22 07:08:47;;;;;;;7.50;1.60;;;;;;;18.54;59.79;100478.43;108620;1270;22515;-80
2023/05/22 07:11:18;;;;;;;7.50;1.60;;;;;;;18.61;59.21;100473.16;108561;1274;22512;-81
2023/05/22 07:13:49;;;;;;;6.50;1.30;;;;;;;18.68;59.03;100474.23;108525;1274;22547;-80
2023/05/22 07:16:22;;;;;;;12.10;1.50;;;;;;;18.74;58.65;100473.60;108354;1272;22553;-80
2023/05/22 07:18:52;;;;;;;5.80;1.60;;;;;;;18.78;58.33;100469.77;108081;1267;26685;-80
2023/05/22 07:21:23;;;;;;;7.10;1.50;;;;;;;18.82;58.22;100468.58;108516;1267;25086;-80
2023/05/22 07:23:54;;;;;;;6.40;1.40;;;;;;;18.88;58.36;100469.69;108022;1274;26589;-80
2023/05/22 07:26:26;;;;;;;7.00;1.60;;;;;;;18.98;57.96;100472.23;108039;1272;22642;-80
2023/05/22 07:28:57;;;;;;;7.20;1.40;;;;;;;19.03;56.77;100465.15;108496;1272;25063;-80
2023/05/22 07:31:28;;;;;;;11.70;1.60;;;;;;;19.07;56.99;100466.90;108450;1266;22536;-80
2023/05/22 07:34:02;;;;;;;5.80;1.30;;;;;;;19.15;56.79;100463.42;108542;1271;25443;-80
2023/05/22 07:36:33;;;;;;;4.70;1.40;;;;;;;19.23;56.27;100467.08;108545;1267;22514;-83
2023/05/22 07:39:05;;;;;;;7.70;1.50;;;;;;;19.28;55.86;100465.70;108491;1274;22500;-82
2023/05/22 07:41:36;;;;;;;8.20;1.80;;;;;;;19.34;55.37;100463.48;108507;1270;22511;-82
2023/05/22 07:44:09;;;;;;;3.90;1.10;;;;;;;19.42;55.32;100462.77;108344;1273;22750;-82
2023/05/22 07:46:40;;;;;;;7.60;1.70;;;;;;;19.52;55.31;100457.29;108442;1274;24212;-82
2023/05/22 07:49:11;;;;;;;9.10;1.50;;;;;;;19.59;55.00;100457.66;108404;1274;24301;-83
2023/05/22 07:51:42;;;;;;;7.80;1.90;;;;;;;19.68;54.60;100458.13;108552;1274;22573;-82
2023/05/22 07:54:14;;;;;;;7.00;1.70;;;;;;;19.73;54.30;100456.73;108509;1272;23326;-82
2023/05/22 07:56:46;;;;;;;10.20;1.70;;;;;;;19.80;54.10;100457.79;108650;1274;22511;-82
2023/05/22 07:59:19;;;;;;;12.10;1.80;;;;;;;19.87;54.11;100454.20;108538;1267;23718;-83
2023/05/22 08:01:50;;;;;;;7.10;1.70;;;;;;;19.93;53.03;100452.50;108681;1274;22521;-83
2023/05/22 08:04:21;;;;;;;6.80;1.50;;;;;;;19.96;52.98;100449.71;108506;1267;25240;-83
2023/05/22 08:06:52;;;;;;;7.00;1.30;;;;;;;20.03;53.16;100452.33;108481;1267;25443;-83
2023/05/22 08:09:23;;;;;;;10.30;1.40;;;;;;;20.13;52.95;100453.00;108401;1275;22542;-83
2023/05/22 08:11:53;;;;;;;7.40;1.50;;;;;;;20.22;52.56;100453.55;108386;1275;25108;-83
2023/05/22 08:14:24;;;;;;;6.60;1.20;;;;;;;20.27;52.47;100443.67;108480;1273;22655;-82
2023/05/22 08:16:57;;;;;;;6.50;1.20;;;;;;;20.32;52.33;100443.02;108351;1269;22516;-82
2023/05/22 08:19:28;;;;;;;6.90;1.20;;;;;;;20.38;51.14;100442.67;108329;1273;22520;-82
2023/05/22 08:21:59;;;;;;;8.80;1.40;;;;;;;20.43;50.14;100441.48;108460;1270;22563;-83
2023/05/22 08:24:30;;;;;;;7.90;1.20;;;;;;;20.53;50.15;100443.89;108465;1267;22530;-83
2023/05/22 08:27:00;;;;;;;5.60;1.30;;;;;;;20.61;50.17;100442.19;108544;1274;22541;-83
2023/05/22 08:29:32;;;;;;;10.30;1.70;;;;;;;20.68;49.70;100438.95;108539;1273;23256;-83
2023/05/22 08:32:02;;;;;;;7.40;1.40;;;;;;;20.73;49.78;100438.80;108576;1263;25516;-83
2023/05/22 08:34:34;;;;;;;6.90;1.40;;;;;;;20.81;49.33;100438.85;108526;1271;22808;-83
2023/05/22 08:37:05;;;;;;;7.30;1.70;;;;;;;20.90;48.63;100438.58;108618;1267;22605;-83
2023/05/22 08:39:36;;;;;;;6.50;1.20;;;;;;;20.95;48.41;100435.90;108506;1273;22599;-83
2023/05/22 08:42:08;;;;;;;8.00;1.20;;;;;;;21.02;47.61;100439.19;108453;1272;22556;-82
2023/05/22 08:44:39;;;;;;;5.70;1.30;;;;;;;21.06;47.18;100436.98;108512;1271;23392;-83
2023/05/22 08:47:12;;;;;;;6.20;1.10;;;;;;;21.13;47.20;100431.73;108418;1270;25585;-83
2023/05/22 08:49:45;;;;;;;10.00;2.30;;;;;;;21.19;46.26;100432.55;108384;1267;22490;-83
2023/05/22 08:52:22;;;;;;;11.60;2.20;;;;;;;21.23;45.78;100433.16;108299;1270;22540;-83
2023/05/22 08:54:57;;;;;;;8.30;1.30;;;;;;;21.28;45.49;100428.94;108330;1271;22564;-83
2023/05/22 08:57:29;;;;;;;4.00;1.10;;;;;;;21.32;45.21;100425.89;108227;1267;22536;-83
2023/05/22 09:00:02;;;;;;;4.70;1.00;;;;;;;21.38;44.89;100423.91;108319;1274;22565;-83
2023/05/22 09:02:33;;;;;;;7.80;1.30;;;;;;;21.45;44.77;100423.39;108477;1273;22526;-82
2023/05/22 09:05:06;;;;;;;6.90;0.90;;;;;;;21.53;44.05;100421.14;108574;1268;23128;-83
2023/05/22 09:07:39;;;;;;;6.70;1.40;;;;;;;21.60;43.79;100420.71;108668;1271;22530;-83
2023/05/22 09:10:11;;;;;;;6.20;1.30;;;;;;;21.66;43.39;100418.37;108532;1272;22539;-83
2023/05/22 09:13:03;;;;;;;4.70;1.00;;;;;;;21.70;43.14;100413.56;108504;1267;22479;-83
2023/05/22 09:15:34;;;;;;;4.30;1.00;;;;;;;21.78;42.66;100411.73;108496;1263;22493;-83
2023/05/22 09:18:08;;;;;;;5.10;1.10;;;;;;;21.82;41.65;100408.04;108425;1274;22584;-83
2023/05/22 09:20:41;;;;;;;8.20;1.00;;;;;;;21.85;41.57;100409.15;108455;1271;22607;-82
2023/05/22 09:23:20;;;;;;;5.70;1.00;;;;;;;21.88;41.19;100410.84;108518;1274;24298;-83
2023/05/22 09:25:54;;;;;;;5.90;1.00;;;;;;;21.92;40.96;100403.11;108411;1266;24219;-83
2023/05/22 09:28:25;;;;;;;8.00;1.10;;;;;;;21.93;40.71;100399.56;108540;1274;25840;-83
2023/05/22 09:30:58;;;;;;;4.30;0.80;;;;;;;21.96;40.43;100404.70;108479;1272;25284;-83
2023/05/22 09:33:29;;;;;;;5.50;1.20;;;;;;;22.00;39.86;100403.04;108471;1269;22488;-83
2023/05/22 09:36:01;;;;;;;4.30;0.90;;;;;;;22.03;39.49;100403.75;108444;1260;22561;-83
2023/05/22 09:38:32;;;;;;;7.20;0.90;;;;;;;22.09;39.74;100407.06;108454;1274;22580;-83
2023/05/22 09:41:03;;;;;;;6.90;1.20;;;;;;;22.13;39.63;100404.06;108386;1274;22989;-83
2023/05/22 09:43:35;;;;;;;4.60;1.10;;;;;;;22.18;39.36;100397.32;108375;1270;22547;-83
2023/05/22 09:46:06;;;;;;;7.70;1.00;;;;;;;22.24;39.05;100396.07;108392;1270;22535;-83
2023/05/22 09:48:37;;;;;;;36.00;3.00;;;;;;;22.29;38.69;100395.21;108399;1270;22644;-83
2023/05/22 09:51:10;;;;;;;8.80;1.20;;;;;;;22.32;38.14;100398.09;108472;1274;23424;-83
2023/05/22 09:53:44;;;;;;;4.40;1.10;;;;;;;22.34;38.11;100394.60;108514;1267;25445;-83
2023/05/22 09:56:18;;;;;;;6.30;1.20;;;;;;;22.42;38.44;100395.64;108604;1270;26541;-83
2023/05/22 09:58:52;;;;;;;7.20;1.40;;;;;;;22.47;38.18;100383.52;108578;1273;22546;-83
2023/05/22 10:01:25;;;;;;;5.30;1.00;;;;;;;22.53;38.35;100382.98;108559;1272;22513;-83
2023/05/22 10:03:58;;;;;;;31.30;3.40;;;;;;;22.58;38.26;100383.44;108551;1273;22518;-83
2023/05/22 10:06:33;;;;;;;18.10;1.70;;;;;;;22.60;37.84;100374.48;108575;1267;22523;-83
2023/05/22 10:09:08;;;;;;;10.20;1.30;;;;;;;22.63;37.47;100373.31;108471;1274;22532;-83
2023/05/22 10:11:40;;;;;;;6.90;1.70;;;;;;;22.69;37.72;100374.07;108597;1263;22543;-83
2023/05/22 10:14:11;;;;;;;82.70;8.40;;;;;;;22.79;37.63;100371.66;108551;1251;22613;-83
2023/05/22 10:16:44;;;;;;;11.30;1.30;;;;;;;22.87;37.48;100373.80;108510;1270;22551;-83
2023/05/22 10:19:15;;;;;;;56.20;3.90;;;;;;;22.92;37.44;100367.71;108472;1267;25952;-83
2023/05/22 10:21:49;;;;;;;10.00;1.00;;;;;;;22.98;37.08;100361.73;108432;1267;24218;-83
2023/05/22 10:24:21;;;;;;;39.70;4.30;;;;;;;22.99;36.99;100362.23;108552;1274;22505;-83
2023/05/22 10:26:53;;;;;;;18.00;1.60;;;;;;;22.98;36.72;100362.45;108670;1274;22544;-83
2023/05/22 10:29:40;;;;;;;10.50;1.10;;;;;;;22.99;36.73;100368.76;108633;1267;24240;-83
2023/05/22 10:32:19;;;;;;;23.10;3.20;;;;;;;23.02;36.86;100369.39;108561;1274;24308;-82
2023/05/22 10:34:59;;;;;;;16.90;1.70;;;;;;;23.09;36.86;100372.75;108504;1274;22498;-83
2023/05/22 10:37:45;;;;;;;6.10;1.10;;;;;;;23.13;36.68;100361.91;108571;1270;23312;-83
2023/05/22 10:40:27;;;;;;;8.00;1.30;;;;;;;23.15;36.93;100361.61;108609;1273;25509;-83
2023/05/22 10:43:04;;;;;;;6.60;1.20;;;;;;;23.19;36.94;100357.73;108585;1273;24219;-83
2023/05/22 10:45:35;;;;;;;7.50;1.20;;;;;;;23.21;36.78;100359.63;108569;1266;24183;-83
2023/05/22 10:48:11;;;;;;;3.80;1.00;;;;;;;23.22;36.94;100357.89;108485;1267;22687;-83
2023/05/22 10:50:53;;;;;;;7.40;1.20;;;;;;;23.20;36.68;100359.05;108447;1274;23862;-83
2023/05/22 10:53:31;;;;;;;10.20;0.90;;;;;;;23.12;36.06;100355.98;110570;1270;22193;-82
2023/05/22 10:56:11;;;;;;;4.50;1.20;;;;;;;22.96;36.17;100358.73;110565;1274;22387;-83
2023/05/22 10:58:44;;;;;;;3.90;0.90;;;;;;;22.91;36.26;100351.77;110566;1267;22145;-83
2023/05/22 11:01:16;;;;;;;3.20;0.90;;;;;;;22.89;36.44;100356.25;110528;1267;23058;-83
2023/05/22 11:03:55;;;;;;;4.50;0.80;;;;;;;22.87;36.30;100352.13;110559;1267;22208;-83
2023/05/22 11:06:44;;;;;;;3.20;0.80;;;;;;;22.84;35.90;100355.18;110562;1267;22143;-83
2023/05/22 11:09:30;;;;;;;4.60;1.10;;;;;;;22.79;36.05;100354.02;110563;1267;22227;-83
2023/05/22 11:12:25;;;;;;;5.20;1.00;;;;;;;22.76;35.55;100348.27;110512;1273;22191;-88
2023/05/22 11:14:57;;;;;;;4.30;1.00;;;;;;;22.70;35.81;100345.44;108760;1275;22537;-84
2023/05/22 11:17:30;;;;;;;6.40;1.00;;;;;;;22.71;36.12;100343.85;108585;1266;22533;-83
2023/05/22 11:20:19;;;;;;;4.90;0.90;;;;;;;22.74;36.01;100340.60;108599;1267;22533;-83
2023/05/22 11:22:58;;;;;;;5.90;1.00;;;;;;;22.76;36.16;100343.34;108557;1266;22501;-84
2023/05/22 11:25:33;;;;;;;7.40;1.20;;;;;;;22.79;36.58;100342.20;108729;1268;25242;-85
2023/05/22 11:28:09;;;;;;;3.90;0.90;;;;;;;22.83;36.38;100345.42;108501;1270;22668;-85
2023/05/22 11:30:43;;;;;;;8.10;0.90;;;;;;;22.84;36.51;100337.62;108395;1267;22538;-85
2023/05/22 11:33:14;;;;;;;5.40;1.20;;;;;;;22.83;36.11;100340.34;108394;1253;22533;-84
2023/05/22 11:35:50;;;;;;;3.40;1.00;;;;;;;22.80;36.25;100338.91;108534;1273;22491;-84
2023/05/22 11:38:22;;;;;;;9.40;1.30;;;;;;;22.77;36.66;100339.89;108853;1274;22634;-85
2023/05/22 11:40:54;;;;;;;3.70;0.90;;;;;;;22.78;36.62;100338.11;108713;1270;23051;-85